createdAt,value
2023-11-24T00:02:19.109Z,1.88
2023-11-24T00:07:40.429Z,1.25
2023-11-24T00:13:01.884Z,1.60
2023-11-24T00:18:23.023Z,1.73
2023-11-24T00:23:44.219Z,1.98
2023-11-24T00:29:05.098Z,1.58
2023-11-24T00:34:26.336Z,1.80
2023-11-24T00:39:47.119Z,1.77
2023-11-24T00:45:08.652Z,1.35
2023-11-24T00:50:29.526Z,1.98
2023-11-24T00:55:51.153Z,1.90
2023-11-24T01:01:12.163Z,2.17
2023-11-24T01:06:33.306Z,1.75
2023-11-24T01:11:54.287Z,2.17
2023-11-24T01:17:15.226Z,2.45
2023-11-24T01:22:36.546Z,2.63
2023-11-24T01:27:58.528Z,2.25
2023-11-24T01:33:19.596Z,2.05
2023-11-24T01:38:40.434Z,2.58
2023-11-24T01:44:02.439Z,2.08
2023-11-24T01:49:24.218Z,2.40
2023-11-24T01:54:46.292Z,2.63
2023-11-24T02:00:08.505Z,3.40
2023-11-24T02:05:34.254Z,2.13
2023-11-24T02:10:55.736Z,2.17
2023-11-24T02:16:17.459Z,1.92
2023-11-24T02:21:38.561Z,1.90
2023-11-24T02:26:59.437Z,2.22
2023-11-24T02:32:20.700Z,1.92
2023-11-24T02:37:42.053Z,1.60
2023-11-24T02:43:03.343Z,2.03
2023-11-24T02:48:24.388Z,1.20
2023-11-24T02:53:46.291Z,1.00
2023-11-24T02:59:07.354Z,1.08
2023-11-24T03:04:28.793Z,1.50
2023-11-24T03:09:49.765Z,1.10
2023-11-24T03:15:10.794Z,1.00
2023-11-24T03:20:31.705Z,1.90
2023-11-24T03:25:52.736Z,1.20
2023-11-24T03:31:13.802Z,1.60
2023-11-24T03:36:34.784Z,1.75
2023-11-24T03:41:55.824Z,1.75
2023-11-24T03:47:18.047Z,1.52
2023-11-24T03:52:39.070Z,1.88
2023-11-24T03:58:00.100Z,1.13
2023-11-24T04:03:21.027Z,1.33
2023-11-24T04:08:42.291Z,1.00
2023-11-24T04:14:03.370Z,0.90
2023-11-24T04:19:24.556Z,1.10
2023-11-24T04:24:45.668Z,0.70
2023-11-24T04:30:07.444Z,1.73
2023-11-24T04:35:28.660Z,1.20
2023-11-24T04:40:49.609Z,0.90
2023-11-24T04:46:11.229Z,1.05
2023-11-24T04:51:32.502Z,0.95
2023-11-24T04:56:53.654Z,1.02
2023-11-24T05:02:14.803Z,0.77
2023-11-24T05:07:35.990Z,0.98
2023-11-24T05:12:57.156Z,1.27
2023-11-24T05:18:18.005Z,1.05
2023-11-24T05:23:38.974Z,0.90
2023-11-24T05:29:00.610Z,0.75
2023-11-24T05:34:21.907Z,1.25
2023-11-24T05:39:42.841Z,1.25
2023-11-24T05:45:03.809Z,0.82
2023-11-24T05:50:25.006Z,0.75
2023-11-24T05:55:46.027Z,0.60
2023-11-24T06:01:07.238Z,0.50
2023-11-24T06:06:28.195Z,0.82
2023-11-24T06:11:49.114Z,0.95
2023-11-24T06:17:10.268Z,1.38
2023-11-24T06:22:31.089Z,0.73
2023-11-24T06:27:52.090Z,1.15
2023-11-24T06:33:13.083Z,0.68
2023-11-24T06:38:33.996Z,1.25
2023-11-24T06:43:55.007Z,0.80
2023-11-24T06:49:15.910Z,1.10
2023-11-24T06:54:36.893Z,0.80
2023-11-24T06:59:57.874Z,1.02
2023-11-24T07:05:19.441Z,0.80
2023-11-24T07:10:40.660Z,1.25
2023-11-24T07:16:01.822Z,0.77
2023-11-24T07:21:22.865Z,1.52
2023-11-24T07:26:43.994Z,0.90
2023-11-24T07:32:05.311Z,1.10
2023-11-24T07:37:26.874Z,0.90
2023-11-24T07:42:48.259Z,1.20
2023-11-24T07:48:09.292Z,1.38
2023-11-24T07:53:30.417Z,1.08
2023-11-24T07:58:51.481Z,1.92
2023-11-24T08:04:12.586Z,1.50
2023-11-24T08:09:33.518Z,1.23
2023-11-24T08:14:54.712Z,1.55
2023-11-24T08:20:16.350Z,1.45
2023-11-24T08:25:37.721Z,1.20
2023-11-24T08:30:58.854Z,1.40
2023-11-24T08:36:22.601Z,1.67
2023-11-24T08:41:49.410Z,2.20
2023-11-24T08:47:10.482Z,1.60
2023-11-24T08:52:31.284Z,1.40
2023-11-24T08:57:52.338Z,1.58
2023-11-24T09:03:13.563Z,1.73
2023-11-24T09:08:35.855Z,1.90
2023-11-24T09:13:56.936Z,1.25
2023-11-24T09:19:17.819Z,1.20
2023-11-24T09:24:38.757Z,1.52
2023-11-24T09:29:59.756Z,1.15
2023-11-24T09:35:23.943Z,1.67
2023-11-24T09:40:44.847Z,1.40
2023-11-24T09:46:06.900Z,1.20
2023-11-24T09:51:28.217Z,1.17
2023-11-24T09:56:49.377Z,1.13
2023-11-24T10:02:15.931Z,1.60
2023-11-24T10:07:36.775Z,1.35
2023-11-24T10:12:59.626Z,1.02
2023-11-24T10:18:20.460Z,2.78
2023-11-24T10:23:41.735Z,2.05
2023-11-24T10:29:02.630Z,1.63
2023-11-24T10:34:24.594Z,1.38
2023-11-24T10:39:46.790Z,1.55
2023-11-24T10:45:09.554Z,2.17
2023-11-24T10:50:31.686Z,1.08
2023-11-24T10:55:53.864Z,1.23
2023-11-24T11:01:16.906Z,1.20
2023-11-24T11:06:37.788Z,0.93
2023-11-24T11:12:22.526Z,0.75
2023-11-24T11:17:43.756Z,0.82
2023-11-24T11:23:04.634Z,0.80
2023-11-24T11:28:35.065Z,0.70
2023-11-24T11:33:55.944Z,0.63
2023-11-24T11:39:21.456Z,0.70
2023-11-24T11:44:42.904Z,1.25
2023-11-24T11:50:08.673Z,1.05
2023-11-24T11:55:31.768Z,1.52
2023-11-24T12:00:53.324Z,1.23
2023-11-24T12:06:14.405Z,1.17
2023-11-24T12:11:35.292Z,1.38
2023-11-24T12:16:56.544Z,1.40
2023-11-24T12:22:17.816Z,1.85
2023-11-24T12:27:38.972Z,1.45
2023-11-24T12:33:00.303Z,1.10
2023-11-24T12:38:16.538Z,1.55
2023-11-24T12:43:37.482Z,1.00
2023-11-24T12:49:02.482Z,1.08
2023-11-24T12:54:24.914Z,1.70
2023-11-24T12:59:45.879Z,1.38
2023-11-24T13:05:08.550Z,1.65
2023-11-24T13:10:31.137Z,1.30
2023-11-24T13:15:52.233Z,1.83
2023-11-24T13:21:13.151Z,1.30
2023-11-24T13:26:34.288Z,1.27
2023-11-24T13:31:55.420Z,1.75
2023-11-24T13:37:16.676Z,1.92
2023-11-24T13:42:37.652Z,1.60
2023-11-24T13:47:58.932Z,1.52
2023-11-24T13:53:19.953Z,1.25
2023-11-24T13:58:41.065Z,0.75
2023-11-24T14:04:02.455Z,0.70
2023-11-24T14:09:23.372Z,0.90
2023-11-24T14:14:44.733Z,0.60
2023-11-24T14:20:06.570Z,0.88
2023-11-24T14:25:27.584Z,1.30
2023-11-24T14:30:49.102Z,1.00
2023-11-24T14:36:10.445Z,1.17
2023-11-24T14:41:31.662Z,1.60
2023-11-24T14:46:52.782Z,1.80
2023-11-24T14:52:14.234Z,0.82
2023-11-24T14:57:35.123Z,0.98
2023-11-24T15:02:57.477Z,1.25
2023-11-24T15:08:18.730Z,1.10
2023-11-24T15:13:39.912Z,0.80
2023-11-24T15:19:00.730Z,1.55
2023-11-24T15:24:21.999Z,1.23
2023-11-24T15:29:43.107Z,1.20
2023-11-24T15:35:04.479Z,1.30
2023-11-24T15:40:25.607Z,1.10
2023-11-24T15:45:53.778Z,1.88
2023-11-24T15:51:20.928Z,1.40
2023-11-24T15:56:42.333Z,1.42
2023-11-24T16:02:03.354Z,1.10
2023-11-24T16:07:24.291Z,1.33
2023-11-24T16:12:46.046Z,1.73
2023-11-24T16:18:10.784Z,2.20
2023-11-24T16:23:32.418Z,2.42
2023-11-24T16:28:53.646Z,2.10
2023-11-24T16:34:18.914Z,1.98
2023-11-24T16:39:40.330Z,1.40
2023-11-24T16:45:02.174Z,1.00
2023-11-24T16:50:23.496Z,1.63
2023-11-24T16:55:44.382Z,1.83
2023-11-24T17:01:05.508Z,1.27
2023-11-24T17:06:26.619Z,1.50
2023-11-24T17:11:47.969Z,1.67
2023-11-24T17:17:08.785Z,0.75
2023-11-24T17:22:30.032Z,1.02
2023-11-24T17:27:51.071Z,0.95
2023-11-24T17:33:12.351Z,1.17
2023-11-24T17:38:33.132Z,1.27
2023-11-24T17:43:54.562Z,1.63
2023-11-24T17:49:15.432Z,0.90
2023-11-24T17:54:36.180Z,1.60
2023-11-24T17:59:58.938Z,1.48
2023-11-24T18:05:20.077Z,1.45
2023-11-24T18:10:40.886Z,1.42
2023-11-24T18:16:02.317Z,0.80
2023-11-24T18:21:23.407Z,0.90
2023-11-24T18:26:44.523Z,1.05
2023-11-24T18:32:06.256Z,1.30
2023-11-24T18:37:27.484Z,2.35
2023-11-24T18:42:48.649Z,2.30
2023-11-24T18:48:09.973Z,0.65
2023-11-24T18:53:30.926Z,0.80
2023-11-24T18:58:52.380Z,0.60
2023-11-24T19:04:13.541Z,1.27
2023-11-24T19:09:34.512Z,0.70
2023-11-24T19:14:55.491Z,0.47
2023-11-24T19:20:16.863Z,0.57
2023-11-24T19:25:38.165Z,0.73
2023-11-24T19:30:59.165Z,0.60
2023-11-24T19:36:20.136Z,0.80
2023-11-24T19:41:41.411Z,0.77
2023-11-24T19:47:02.646Z,0.80
2023-11-24T19:52:23.508Z,0.82
2023-11-24T19:57:44.326Z,0.50
2023-11-24T20:03:05.724Z,0.60
2023-11-24T20:08:26.682Z,0.52
2023-11-24T20:13:47.702Z,0.95
2023-11-24T20:19:08.804Z,0.75
2023-11-24T20:24:29.936Z,0.70
2023-11-24T20:29:50.936Z,0.80
2023-11-24T20:35:12.153Z,0.80
2023-11-24T20:40:33.108Z,0.75
2023-11-24T20:45:54.311Z,0.55
2023-11-24T20:51:15.483Z,0.50
2023-11-24T20:56:36.498Z,1.02
2023-11-24T21:01:57.984Z,0.90
2023-11-24T21:07:19.194Z,0.70
2023-11-24T21:12:40.298Z,0.70
2023-11-24T21:18:02.136Z,0.50
2023-11-24T21:23:23.804Z,0.50
2023-11-24T21:28:44.964Z,0.80
2023-11-24T21:34:06.086Z,0.55
2023-11-24T21:39:27.012Z,0.55
2023-11-24T21:44:49.220Z,0.60
2023-11-24T21:50:11.993Z,0.82
2023-11-24T21:55:33.396Z,0.60
2023-11-24T22:00:54.432Z,0.95
2023-11-24T22:06:15.818Z,0.63
2023-11-24T22:11:36.859Z,1.25
2023-11-24T22:16:58.069Z,0.68
2023-11-24T22:22:18.930Z,0.73
2023-11-24T22:27:40.006Z,0.60
2023-11-24T22:33:01.262Z,0.80
2023-11-24T22:38:22.087Z,0.80
2023-11-24T22:43:43.297Z,0.93
2023-11-24T22:49:04.312Z,1.15
2023-11-24T22:54:25.435Z,1.02
2023-11-24T22:59:48.225Z,1.35
2023-11-24T23:05:09.409Z,1.00
2023-11-24T23:10:30.587Z,1.15
2023-11-24T23:15:51.460Z,0.82
2023-11-24T23:21:14.072Z,1.20
2023-11-24T23:26:35.130Z,1.10
2023-11-24T23:31:56.322Z,0.88
2023-11-24T23:37:17.352Z,1.20
2023-11-24T23:42:38.273Z,0.93
2023-11-24T23:47:59.377Z,1.08
2023-11-24T23:53:27.305Z,1.20
2023-11-24T23:58:48.160Z,1.10
